sensor_id;sensor_type;location;lat;lon;timestamp;pressure;altitude;pressure_sealevel;temperature;humidity
10992;BME280;5549;47.028;15.514;2023-02-05T00:00:26;98017.53;;;1.74;39.54
10992;BME280;5549;47.028;15.514;2023-02-05T00:02:53;98026.06;;;1.78;39.42
10992;BME280;5549;47.028;15.514;2023-02-05T00:05:23;98021.66;;;1.81;39.20
10992;BME280;5549;47.028;15.514;2023-02-05T00:07:51;98024.94;;;1.52;39.04
10992;BME280;5549;47.028;15.514;2023-02-05T00:10:20;98020.06;;;1.76;39.23
10992;BME280;5549;47.028;15.514;2023-02-05T00:12:48;98029.53;;;1.77;39.15
10992;BME280;5549;47.028;15.514;2023-02-05T00:15:15;98030.63;;;1.67;38.93
10992;BME280;5549;47.028;15.514;2023-02-05T00:17:45;98034.16;;;1.64;38.51
10992;BME280;5549;47.028;15.514;2023-02-05T00:20:13;98028.28;;;1.57;38.84
10992;BME280;5549;47.028;15.514;2023-02-05T00:22:40;98041.44;;;1.84;39.21
10992;BME280;5549;47.028;15.514;2023-02-05T00:25:10;98034.81;;;1.72;38.84
10992;BME280;5549;47.028;15.514;2023-02-05T00:27:39;98042.56;;;1.74;39.33
10992;BME280;5549;47.028;15.514;2023-02-05T00:30:10;98033.75;;;1.45;38.85
10992;BME280;5549;47.028;15.514;2023-02-05T00:32:40;98041.00;;;1.67;38.71
10992;BME280;5549;47.028;15.514;2023-02-05T00:35:10;98043.31;;;1.79;38.52
10992;BME280;5549;47.028;15.514;2023-02-05T00:37:40;98046.47;;;1.90;38.74
10992;BME280;5549;47.028;15.514;2023-02-05T00:40:10;98044.81;;;1.52;39.03
10992;BME280;5549;47.028;15.514;2023-02-05T00:42:39;98044.63;;;1.95;38.31
10992;BME280;5549;47.028;15.514;2023-02-05T00:45:08;98039.22;;;2.03;37.90
10992;BME280;5549;47.028;15.514;2023-02-05T00:47:36;98044.66;;;1.93;38.56
10992;BME280;5549;47.028;15.514;2023-02-05T00:50:04;98041.38;;;1.87;38.35
10992;BME280;5549;47.028;15.514;2023-02-05T00:52:32;98037.88;;;1.88;38.87
10992;BME280;5549;47.028;15.514;2023-02-05T00:55:03;98041.38;;;1.87;38.87
10992;BME280;5549;47.028;15.514;2023-02-05T00:57:30;98045.84;;;1.80;38.73
10992;BME280;5549;47.028;15.514;2023-02-05T00:59:59;98034.97;;;2.00;38.91
10992;BME280;5549;47.028;15.514;2023-02-05T01:02:27;98044.03;;;1.84;38.92
10992;BME280;5549;47.028;15.514;2023-02-05T01:04:54;98048.84;;;1.64;39.09
10992;BME280;5549;47.028;15.514;2023-02-05T01:07:22;98052.72;;;1.46;40.13
10992;BME280;5549;47.028;15.514;2023-02-05T01:09:50;98050.22;;;1.43;39.37
10992;BME280;5549;47.028;15.514;2023-02-05T01:12:17;98048.78;;;1.31;39.76
10992;BME280;5549;47.028;15.514;2023-02-05T01:14:45;98049.44;;;1.39;39.48
10992;BME280;5549;47.028;15.514;2023-02-05T01:17:14;98055.06;;;1.56;39.74
10992;BME280;5549;47.028;15.514;2023-02-05T01:19:42;98054.03;;;1.64;38.83
10992;BME280;5549;47.028;15.514;2023-02-05T01:22:12;98056.38;;;1.73;39.74
10992;BME280;5549;47.028;15.514;2023-02-05T01:24:39;98054.56;;;1.78;39.42
10992;BME280;5549;47.028;15.514;2023-02-05T01:27:07;98049.44;;;1.75;39.71
10992;BME280;5549;47.028;15.514;2023-02-05T01:29:35;98052.94;;;1.74;39.44
10992;BME280;5549;47.028;15.514;2023-02-05T01:32:03;98052.84;;;1.77;39.39
10992;BME280;5549;47.028;15.514;2023-02-05T01:34:34;98051.88;;;1.45;39.35
10992;BME280;5549;47.028;15.514;2023-02-05T01:37:02;98058.84;;;1.79;39.71
10992;BME280;5549;47.028;15.514;2023-02-05T01:39:32;98054.31;;;1.87;39.61
10992;BME280;5549;47.028;15.514;2023-02-05T01:42:01;98049.94;;;1.89;39.27
10992;BME280;5549;47.028;15.514;2023-02-05T01:44:30;98042.00;;;1.61;39.23
10992;BME280;5549;47.028;15.514;2023-02-05T01:46:57;98042.06;;;1.58;39.34
10992;BME280;5549;47.028;15.514;2023-02-05T01:49:29;98031.47;;;1.33;39.71
10992;BME280;5549;47.028;15.514;2023-02-05T01:52:06;98019.84;;;1.49;40.24
10992;BME280;5549;47.028;15.514;2023-02-05T01:54:42;98020.66;;;1.16;40.69
10992;BME280;5549;47.028;15.514;2023-02-05T01:57:15;98016.75;;;1.35;39.86
10992;BME280;5549;47.028;15.514;2023-02-05T01:59:45;98020.59;;;1.19;40.66
10992;BME280;5549;47.028;15.514;2023-02-05T02:02:13;98023.25;;;1.16;40.88
10992;BME280;5549;47.028;15.514;2023-02-05T02:04:44;98024.75;;;1.26;40.20
10992;BME280;5549;47.028;15.514;2023-02-05T02:07:20;98018.75;;;1.24;40.22
10992;BME280;5549;47.028;15.514;2023-02-05T02:09:53;98010.38;;;1.13;41.08
10992;BME280;5549;47.028;15.514;2023-02-05T02:12:27;98021.38;;;1.22;40.40
10992;BME280;5549;47.028;15.514;2023-02-05T02:15:02;98016.84;;;0.95;40.66
10992;BME280;5549;47.028;15.514;2023-02-05T02:17:34;98015.38;;;1.20;40.43
10992;BME280;5549;47.028;15.514;2023-02-05T02:20:09;98019.34;;;1.35;40.54
10992;BME280;5549;47.028;15.514;2023-02-05T02:22:54;98013.78;;;1.15;40.40
10992;BME280;5549;47.028;15.514;2023-02-05T02:28:43;98025.38;;;0.99;39.88
10992;BME280;5549;47.028;15.514;2023-02-05T02:31:18;98015.06;;;1.34;40.02
10992;BME280;5549;47.028;15.514;2023-02-05T02:33:55;98009.00;;;1.35;40.10
10992;BME280;5549;47.028;15.514;2023-02-05T02:36:33;98013.47;;;1.28;39.57
10992;BME280;5549;47.028;15.514;2023-02-05T02:39:07;98016.25;;;1.19;40.32
10992;BME280;5549;47.028;15.514;2023-02-05T02:41:42;98015.50;;;1.16;40.84
10992;BME280;5549;47.028;15.514;2023-02-05T02:44:20;98012.50;;;1.33;40.07
10992;BME280;5549;47.028;15.514;2023-02-05T02:46:53;98013.88;;;1.47;40.10
10992;BME280;5549;47.028;15.514;2023-02-05T02:49:27;98023.25;;;1.16;40.44
10992;BME280;5549;47.028;15.514;2023-02-05T02:51:57;98021.97;;;0.96;40.94
10992;BME280;5549;47.028;15.514;2023-02-05T02:54:32;98032.47;;;0.90;41.79
10992;BME280;5549;47.028;15.514;2023-02-05T02:57:02;98017.53;;;1.02;41.87
10992;BME280;5549;47.028;15.514;2023-02-05T02:59:37;98027.31;;;0.89;42.15
10992;BME280;5549;47.028;15.514;2023-02-05T03:02:10;98026.78;;;1.12;42.37
10992;BME280;5549;47.028;15.514;2023-02-05T03:04:45;98032.31;;;0.96;42.54
10992;BME280;5549;47.028;15.514;2023-02-05T03:07:21;98031.91;;;0.76;43.84
10992;BME280;5549;47.028;15.514;2023-02-05T03:09:56;98031.63;;;0.88;43.93
10992;BME280;5549;47.028;15.514;2023-02-05T03:12:27;98041.84;;;0.94;43.39
10992;BME280;5549;47.028;15.514;2023-02-05T03:14:56;98033.75;;;1.10;43.43
10992;BME280;5549;47.028;15.514;2023-02-05T03:17:25;98038.50;;;0.89;44.45
10992;BME280;5549;47.028;15.514;2023-02-05T03:20:00;98033.41;;;0.86;44.65
10992;BME280;5549;47.028;15.514;2023-02-05T03:22:29;98024.28;;;0.70;45.04
10992;BME280;5549;47.028;15.514;2023-02-05T03:24:58;98034.28;;;0.85;44.76
10992;BME280;5549;47.028;15.514;2023-02-05T03:27:25;98036.19;;;0.77;44.71
10992;BME280;5549;47.028;15.514;2023-02-05T03:29:53;98034.34;;;0.82;45.07
10992;BME280;5549;47.028;15.514;2023-02-05T03:32:35;98022.63;;;0.68;45.16
10992;BME280;5549;47.028;15.514;2023-02-05T03:35:24;98034.75;;;1.03;44.66
10992;BME280;5549;47.028;15.514;2023-02-05T03:38:08;98043.53;;;0.95;45.62
10992;BME280;5549;47.028;15.514;2023-02-05T03:40:45;98036.72;;;0.53;46.33
10992;BME280;5549;47.028;15.514;2023-02-05T03:43:27;98041.09;;;0.89;46.23
10992;BME280;5549;47.028;15.514;2023-02-05T03:46:02;98036.91;;;0.84;46.97
10992;BME280;5549;47.028;15.514;2023-02-05T03:48:44;98033.41;;;0.86;46.60
10992;BME280;5549;47.028;15.514;2023-02-05T03:51:34;98031.78;;;0.82;47.04
10992;BME280;5549;47.028;15.514;2023-02-05T03:54:11;98024.53;;;0.58;47.74
10992;BME280;5549;47.028;15.514;2023-02-05T03:56:48;98030.78;;;0.48;47.97
10992;BME280;5549;47.028;15.514;2023-02-05T03:59:19;98029.44;;;0.70;47.89
10992;BME280;5549;47.028;15.514;2023-02-05T04:01:49;98026.88;;;0.70;47.61
10992;BME280;5549;47.028;15.514;2023-02-05T04:04:18;98023.88;;;0.48;48.73
10992;BME280;5549;47.028;15.514;2023-02-05T04:06:48;98028.84;;;0.59;48.40
10992;BME280;5549;47.028;15.514;2023-02-05T04:09:17;98030.13;;;0.78;47.65
10992;BME280;5549;47.028;15.514;2023-02-05T04:11:45;98036.47;;;0.65;47.48
10992;BME280;5549;47.028;15.514;2023-02-05T04:14:12;98029.72;;;0.58;47.65
10992;BME280;5549;47.028;15.514;2023-02-05T04:16:40;98034.72;;;0.66;47.78
10992;BME280;5549;47.028;15.514;2023-02-05T04:19:07;98045.84;;;0.69;47.47
10992;BME280;5549;47.028;15.514;2023-02-05T04:21:36;98044.34;;;0.59;47.72
10992;BME280;5549;47.028;15.514;2023-02-05T04:24:05;98041.59;;;0.67;47.33
10992;BME280;5549;47.028;15.514;2023-02-05T04:26:34;98039.13;;;0.60;47.30
10992;BME280;5549;47.028;15.514;2023-02-05T04:29:04;98035.63;;;0.63;47.10
10992;BME280;5549;47.028;15.514;2023-02-05T04:31:31;98036.53;;;0.62;47.13
10992;BME280;5549;47.028;15.514;2023-02-05T04:33:59;98032.94;;;0.69;47.57
10992;BME280;5549;47.028;15.514;2023-02-05T04:36:28;98028.66;;;0.67;46.84
10992;BME280;5549;47.028;15.514;2023-02-05T04:38:57;98027.94;;;0.60;47.00
10992;BME280;5549;47.028;15.514;2023-02-05T04:41:25;98030.50;;;0.61;47.06
10992;BME280;5549;47.028;15.514;2023-02-05T04:43:55;98034.25;;;0.47;46.84
10992;BME280;5549;47.028;15.514;2023-02-05T04:46:22;98030.75;;;0.49;46.53
10992;BME280;5549;47.028;15.514;2023-02-05T04:48:50;98034.19;;;0.90;46.02
10992;BME280;5549;47.028;15.514;2023-02-05T04:51:17;98035.38;;;0.75;46.01
10992;BME280;5549;47.028;15.514;2023-02-05T04:53:45;98034.13;;;0.53;46.57
10992;BME280;5549;47.028;15.514;2023-02-05T04:56:16;98031.31;;;0.63;45.79
10992;BME280;5549;47.028;15.514;2023-02-05T04:58:45;98033.28;;;0.52;45.91
10992;BME280;5549;47.028;15.514;2023-02-05T05:01:15;98041.34;;;0.79;45.48
10992;BME280;5549;47.028;15.514;2023-02-05T05:03:46;98040.13;;;0.95;45.18
10992;BME280;5549;47.028;15.514;2023-02-05T05:06:18;98043.13;;;1.14;45.03
10992;BME280;5549;47.028;15.514;2023-02-05T05:08:45;98042.63;;;0.98;47.46
10992;BME280;5549;47.028;15.514;2023-02-05T05:11:16;98037.63;;;0.90;48.23
10992;BME280;5549;47.028;15.514;2023-02-05T05:13:45;98044.97;;;0.70;48.53
10992;BME280;5549;47.028;15.514;2023-02-05T05:16:14;98038.25;;;0.61;49.37
10992;BME280;5549;47.028;15.514;2023-02-05T05:18:44;98046.25;;;0.49;49.71
10992;BME280;5549;47.028;15.514;2023-02-05T05:21:12;98055.59;;;0.13;51.53
10992;BME280;5549;47.028;15.514;2023-02-05T05:23:40;98057.47;;;0.05;52.03
10992;BME280;5549;47.028;15.514;2023-02-05T05:26:10;98072.75;;;-0.34;55.01
10992;BME280;5549;47.028;15.514;2023-02-05T05:28:40;98075.53;;;-0.46;56.36
10992;BME280;5549;47.028;15.514;2023-02-05T05:31:14;98077.19;;;-0.42;56.86
10992;BME280;5549;47.028;15.514;2023-02-05T05:33:44;98075.56;;;-0.49;57.52
10992;BME280;5549;47.028;15.514;2023-02-05T05:36:12;98085.34;;;-0.69;58.98
10992;BME280;5549;47.028;15.514;2023-02-05T05:38:40;98079.50;;;-0.26;57.02
10992;BME280;5549;47.028;15.514;2023-02-05T05:41:10;98084.78;;;-0.33;57.03
10992;BME280;5549;47.028;15.514;2023-02-05T05:43:58;98084.09;;;-0.44;57.37
10992;BME280;5549;47.028;15.514;2023-02-05T05:46:26;98087.69;;;-0.54;57.34
10992;BME280;5549;47.028;15.514;2023-02-05T05:48:56;98087.34;;;-0.33;56.35
10992;BME280;5549;47.028;15.514;2023-02-05T05:51:28;98091.72;;;-0.36;56.27
10992;BME280;5549;47.028;15.514;2023-02-05T05:53:58;98089.09;;;-0.35;55.73
10992;BME280;5549;47.028;15.514;2023-02-05T05:56:25;98089.38;;;0.01;54.12
10992;BME280;5549;47.028;15.514;2023-02-05T05:58:53;98103.81;;;0.13;53.57
10992;BME280;5549;47.028;15.514;2023-02-05T06:01:21;98106.16;;;0.25;53.21
10992;BME280;5549;47.028;15.514;2023-02-05T06:03:51;98109.50;;;0.31;53.59
10992;BME280;5549;47.028;15.514;2023-02-05T06:06:19;98121.09;;;0.09;55.22
10992;BME280;5549;47.028;15.514;2023-02-05T06:08:46;98124.78;;;-0.07;55.60
10992;BME280;5549;47.028;15.514;2023-02-05T06:11:14;98126.41;;;0.00;55.44
10992;BME280;5549;47.028;15.514;2023-02-05T06:13:41;98137.13;;;-0.24;57.99
10992;BME280;5549;47.028;15.514;2023-02-05T06:16:09;98133.03;;;-0.38;58.66
10992;BME280;5549;47.028;15.514;2023-02-05T06:18:38;98152.81;;;-0.37;59.08
10992;BME280;5549;47.028;15.514;2023-02-05T06:21:06;98156.31;;;-0.41;59.55
10992;BME280;5549;47.028;15.514;2023-02-05T06:23:34;98154.81;;;-0.57;60.16
10992;BME280;5549;47.028;15.514;2023-02-05T06:26:03;98160.81;;;-0.55;60.42
10992;BME280;5549;47.028;15.514;2023-02-05T06:28:30;98172.56;;;-0.36;59.57
10992;BME280;5549;47.028;15.514;2023-02-05T06:31:00;98161.25;;;-0.27;58.79
10992;BME280;5549;47.028;15.514;2023-02-05T06:33:30;98154.88;;;-0.60;60.50
10992;BME280;5549;47.028;15.514;2023-02-05T06:35:59;98157.50;;;-0.63;60.55
10992;BME280;5549;47.028;15.514;2023-02-05T06:38:29;98172.09;;;-0.62;60.71
10992;BME280;5549;47.028;15.514;2023-02-05T06:40:56;98189.00;;;-0.41;60.20
10992;BME280;5549;47.028;15.514;2023-02-05T06:43:24;98183.34;;;-0.68;61.16
10992;BME280;5549;47.028;15.514;2023-02-05T06:45:51;98184.19;;;-0.66;61.60
10992;BME280;5549;47.028;15.514;2023-02-05T06:48:20;98184.00;;;-0.52;61.71
10992;BME280;5549;47.028;15.514;2023-02-05T06:50:48;98179.84;;;-0.05;59.98
10992;BME280;5549;47.028;15.514;2023-02-05T06:53:17;98187.50;;;-0.01;59.75
10992;BME280;5549;47.028;15.514;2023-02-05T06:55:44;98185.44;;;0.23;59.12
10992;BME280;5549;47.028;15.514;2023-02-05T06:58:12;98186.63;;;0.53;58.11
10992;BME280;5549;47.028;15.514;2023-02-05T07:00:39;98183.75;;;0.68;57.82
10992;BME280;5549;47.028;15.514;2023-02-05T07:03:08;98186.75;;;0.91;57.13
10992;BME280;5549;47.028;15.514;2023-02-05T07:05:35;98188.06;;;1.12;56.32
10992;BME280;5549;47.028;15.514;2023-02-05T07:08:03;98188.19;;;1.46;55.83
10992;BME280;5549;47.028;15.514;2023-02-05T07:10:33;98189.81;;;1.50;55.24
10992;BME280;5549;47.028;15.514;2023-02-05T07:13:00;98190.75;;;1.06;56.10
10992;BME280;5549;47.028;15.514;2023-02-05T07:15:28;98195.09;;;1.06;55.95
10992;BME280;5549;47.028;15.514;2023-02-05T07:17:56;98196.22;;;1.34;55.81
10992;BME280;5549;47.028;15.514;2023-02-05T07:20:26;98193.97;;;1.17;55.69
10992;BME280;5549;47.028;15.514;2023-02-05T07:22:56;98202.09;;;1.42;55.38
10992;BME280;5549;47.028;15.514;2023-02-05T07:25:25;98204.78;;;1.38;55.64
10992;BME280;5549;47.028;15.514;2023-02-05T07:27:57;98210.41;;;1.56;54.93
10992;BME280;5549;47.028;15.514;2023-02-05T07:30:24;98200.94;;;1.55;54.98
10992;BME280;5549;47.028;15.514;2023-02-05T07:32:52;98198.09;;;1.66;55.09
10992;BME280;5549;47.028;15.514;2023-02-05T07:35:20;98191.59;;;1.87;54.04
10992;BME280;5549;47.028;15.514;2023-02-05T07:37:47;98200.13;;;1.92;54.81
10992;BME280;5549;47.028;15.514;2023-02-05T07:40:15;98205.72;;;2.11;53.75
10992;BME280;5549;47.028;15.514;2023-02-05T07:42:43;98212.91;;;2.35;52.99
10992;BME280;5549;47.028;15.514;2023-02-05T07:45:12;98210.59;;;2.57;52.78
10992;BME280;5549;47.028;15.514;2023-02-05T07:47:40;98193.66;;;2.76;51.77
10992;BME280;5549;47.028;15.514;2023-02-05T07:50:08;98201.03;;;2.92;51.44
10992;BME280;5549;47.028;15.514;2023-02-05T07:52:39;98196.28;;;3.07;50.44
10992;BME280;5549;47.028;15.514;2023-02-05T07:55:07;98202.31;;;3.37;50.08
10992;BME280;5549;47.028;15.514;2023-02-05T07:57:35;98204.75;;;3.73;49.11
10992;BME280;5549;47.028;15.514;2023-02-05T08:00:06;98213.28;;;3.48;49.07
10992;BME280;5549;47.028;15.514;2023-02-05T08:02:36;98209.06;;;3.74;49.05
10992;BME280;5549;47.028;15.514;2023-02-05T08:05:07;98218.91;;;3.33;49.63
10992;BME280;5549;47.028;15.514;2023-02-05T08:07:37;98226.94;;;2.93;50.79
10992;BME280;5549;47.028;15.514;2023-02-05T08:10:06;98222.69;;;2.90;51.18
10992;BME280;5549;47.028;15.514;2023-02-05T08:12:35;98226.66;;;2.71;51.15
10992;BME280;5549;47.028;15.514;2023-02-05T08:15:03;98221.19;;;3.13;50.35
10992;BME280;5549;47.028;15.514;2023-02-05T08:17:35;98229.66;;;3.19;49.72
10992;BME280;5549;47.028;15.514;2023-02-05T08:20:05;98230.63;;;2.84;50.43
10992;BME280;5549;47.028;15.514;2023-02-05T08:22:34;98229.97;;;3.09;50.08
10992;BME280;5549;47.028;15.514;2023-02-05T08:25:08;98235.66;;;2.90;49.29
10992;BME280;5549;47.028;15.514;2023-02-05T08:27:38;98233.88;;;2.93;49.94
10992;BME280;5549;47.028;15.514;2023-02-05T08:30:10;98227.97;;;3.18;48.62
10992;BME280;5549;47.028;15.514;2023-02-05T08:32:39;98218.44;;;3.19;47.97
10992;BME280;5549;47.028;15.514;2023-02-05T08:35:07;98224.69;;;3.12;48.43
10992;BME280;5549;47.028;15.514;2023-02-05T08:37:35;98224.00;;;3.05;48.47
10992;BME280;5549;47.028;15.514;2023-02-05T08:40:03;98231.13;;;2.99;48.43
10992;BME280;5549;47.028;15.514;2023-02-05T08:42:31;98229.63;;;2.90;48.25
10992;BME280;5549;47.028;15.514;2023-02-05T08:44:59;98235.16;;;3.09;49.16
10992;BME280;5549;47.028;15.514;2023-02-05T08:47:26;98228.94;;;2.83;48.43
10992;BME280;5549;47.028;15.514;2023-02-05T08:49:55;98227.38;;;2.76;48.35
10992;BME280;5549;47.028;15.514;2023-02-05T08:52:23;98230.06;;;3.06;48.40
10992;BME280;5549;47.028;15.514;2023-02-05T08:54:53;98230.78;;;3.11;47.49
10992;BME280;5549;47.028;15.514;2023-02-05T08:57:21;98238.72;;;3.05;49.18
10992;BME280;5549;47.028;15.514;2023-02-05T08:59:48;98229.94;;;3.40;47.44
10992;BME280;5549;47.028;15.514;2023-02-05T09:02:18;98234.41;;;3.66;47.13
10992;BME280;5549;47.028;15.514;2023-02-05T09:04:48;98230.97;;;3.65;46.87
10992;BME280;5549;47.028;15.514;2023-02-05T09:07:17;98227.63;;;3.62;46.07
10992;BME280;5549;47.028;15.514;2023-02-05T09:09:44;98230.56;;;3.49;45.81
10992;BME280;5549;47.028;15.514;2023-02-05T09:12:12;98219.63;;;3.68;46.09
10992;BME280;5549;47.028;15.514;2023-02-05T09:14:40;98218.09;;;4.16;45.62
10992;BME280;5549;47.028;15.514;2023-02-05T09:17:10;98227.38;;;4.25;45.04
10992;BME280;5549;47.028;15.514;2023-02-05T09:19:41;98221.38;;;3.95;44.57
10992;BME280;5549;47.028;15.514;2023-02-05T09:22:09;98224.31;;;4.39;44.46
10992;BME280;5549;47.028;15.514;2023-02-05T09:24:41;98232.53;;;4.27;43.72
10992;BME280;5549;47.028;15.514;2023-02-05T09:27:11;98232.72;;;4.47;42.81
10992;BME280;5549;47.028;15.514;2023-02-05T09:29:42;98234.91;;;4.33;42.66
10992;BME280;5549;47.028;15.514;2023-02-05T09:32:09;98241.19;;;3.99;42.88
10992;BME280;5549;47.028;15.514;2023-02-05T09:34:37;98234.19;;;4.01;43.03
10992;BME280;5549;47.028;15.514;2023-02-05T09:37:04;98236.16;;;3.65;43.05
10992;BME280;5549;47.028;15.514;2023-02-05T09:39:32;98242.81;;;3.44;42.67
10992;BME280;5549;47.028;15.514;2023-02-05T09:42:08;98234.97;;;3.47;43.06
10992;BME280;5549;47.028;15.514;2023-02-05T09:44:53;98229.63;;;3.21;42.90
10992;BME280;5549;47.028;15.514;2023-02-05T09:47:30;98226.22;;;3.19;42.60
10992;BME280;5549;47.028;15.514;2023-02-05T09:50:05;98222.50;;;3.28;43.29
10992;BME280;5549;47.028;15.514;2023-02-05T09:52:44;98225.09;;;3.59;43.18
10992;BME280;5549;47.028;15.514;2023-02-05T09:55:19;98214.81;;;3.83;42.85
10992;BME280;5549;47.028;15.514;2023-02-05T09:57:54;98220.66;;;3.62;41.19
10992;BME280;5549;47.028;15.514;2023-02-05T10:00:27;98225.25;;;3.23;41.47
10992;BME280;5549;47.028;15.514;2023-02-05T10:03:01;98222.03;;;3.44;42.88
10992;BME280;5549;47.028;15.514;2023-02-05T10:05:46;98212.28;;;3.82;41.56
10992;BME280;5549;47.028;15.514;2023-02-05T10:08:30;98211.03;;;3.66;40.76
10992;BME280;5549;47.028;15.514;2023-02-05T10:11:10;98208.00;;;3.51;41.40
10992;BME280;5549;47.028;15.514;2023-02-05T10:13:42;98203.47;;;3.58;40.88
10992;BME280;5549;47.028;15.514;2023-02-05T10:16:53;98190.44;;;3.60;42.55
10992;BME280;5549;47.028;15.514;2023-02-05T10:19:56;98189.88;;;3.78;42.39
10992;BME280;5549;47.028;15.514;2023-02-05T10:22:29;98176.16;;;4.01;42.17
10992;BME280;5549;47.028;15.514;2023-02-05T10:25:27;98174.91;;;4.12;40.24
10992;BME280;5549;47.028;15.514;2023-02-05T10:28:07;98170.63;;;4.11;40.76
10992;BME280;5549;47.028;15.514;2023-02-05T10:30:44;98164.75;;;4.31;39.76
10992;BME280;5549;47.028;15.514;2023-02-05T10:33:30;98158.91;;;4.74;39.75
10992;BME280;5549;47.028;15.514;2023-02-05T10:36:04;98159.75;;;5.46;40.06
10992;BME280;5549;47.028;15.514;2023-02-05T10:38:38;98147.56;;;5.92;39.50
10992;BME280;5549;47.028;15.514;2023-02-05T10:41:18;98136.03;;;6.60;38.78
10992;BME280;5549;47.028;15.514;2023-02-05T10:43:52;98135.97;;;7.21;37.22
10992;BME280;5549;47.028;15.514;2023-02-05T10:46:26;98125.72;;;7.54;36.58
10992;BME280;5549;47.028;15.514;2023-02-05T10:49:00;98132.00;;;6.92;35.37
10992;BME280;5549;47.028;15.514;2023-02-05T10:51:34;98126.19;;;7.06;36.79
10992;BME280;5549;47.028;15.514;2023-02-05T10:54:16;98121.19;;;7.01;35.95
10992;BME280;5549;47.028;15.514;2023-02-05T10:56:46;98112.78;;;7.14;34.95
10992;BME280;5549;47.028;15.514;2023-02-05T10:59:22;98103.44;;;8.00;36.40
10992;BME280;5549;47.028;15.514;2023-02-05T11:01:52;98092.00;;;8.38;34.13
10992;BME280;5549;47.028;15.514;2023-02-05T11:04:30;98087.44;;;8.76;33.74
10992;BME280;5549;47.028;15.514;2023-02-05T11:07:00;98082.28;;;9.23;33.37
10992;BME280;5549;47.028;15.514;2023-02-05T11:09:33;98076.88;;;9.42;33.33
10992;BME280;5549;47.028;15.514;2023-02-05T11:12:05;98078.28;;;9.63;32.12
10992;BME280;5549;47.028;15.514;2023-02-05T11:14:44;98074.91;;;10.07;31.96
10992;BME280;5549;47.028;15.514;2023-02-05T11:17:23;98076.34;;;8.53;30.76
10992;BME280;5549;47.028;15.514;2023-02-05T11:19:56;98073.31;;;9.43;32.86
10992;BME280;5549;47.028;15.514;2023-02-05T11:22:27;98062.38;;;9.82;33.29
10992;BME280;5549;47.028;15.514;2023-02-05T11:25:16;98055.22;;;10.00;31.38
10992;BME280;5549;47.028;15.514;2023-02-05T11:27:51;98052.03;;;10.24;29.81
10992;BME280;5549;47.028;15.514;2023-02-05T11:30:29;98049.91;;;10.15;30.56
10992;BME280;5549;47.028;15.514;2023-02-05T11:33:23;98041.09;;;9.86;29.63
10992;BME280;5549;47.028;15.514;2023-02-05T11:35:54;98041.84;;;8.95;30.64
10992;BME280;5549;47.028;15.514;2023-02-05T11:38:30;98047.66;;;8.85;30.54
10992;BME280;5549;47.028;15.514;2023-02-05T11:41:01;98049.16;;;8.56;30.41
10992;BME280;5549;47.028;15.514;2023-02-05T11:43:32;98043.72;;;9.09;30.52
10992;BME280;5549;47.028;15.514;2023-02-05T11:46:06;98043.44;;;8.98;31.22
10992;BME280;5549;47.028;15.514;2023-02-05T11:48:40;98045.53;;;8.76;31.15
10992;BME280;5549;47.028;15.514;2023-02-05T11:51:14;98037.53;;;9.10;31.09
10992;BME280;5549;47.028;15.514;2023-02-05T11:53:52;98040.72;;;8.84;31.38
10992;BME280;5549;47.028;15.514;2023-02-05T11:56:23;98033.41;;;9.06;30.43
10992;BME280;5549;47.028;15.514;2023-02-05T11:59:00;98031.19;;;8.65;30.85
10992;BME280;5549;47.028;15.514;2023-02-05T12:01:33;98025.72;;;8.37;31.35
10992;BME280;5549;47.028;15.514;2023-02-05T12:04:12;98028.91;;;7.56;32.57
10992;BME280;5549;47.028;15.514;2023-02-05T12:06:47;98025.25;;;8.12;33.25
10992;BME280;5549;47.028;15.514;2023-02-05T12:09:20;98021.41;;;8.36;33.33
10992;BME280;5549;47.028;15.514;2023-02-05T12:12:00;98017.59;;;8.92;33.24
10992;BME280;5549;47.028;15.514;2023-02-05T12:14:41;98016.66;;;9.09;31.64
10992;BME280;5549;47.028;15.514;2023-02-05T12:17:37;98010.81;;;9.04;30.72
10992;BME280;5549;47.028;15.514;2023-02-05T12:20:19;98012.59;;;9.03;31.69
10992;BME280;5549;47.028;15.514;2023-02-05T12:23:17;98008.22;;;8.38;31.32
10992;BME280;5549;47.028;15.514;2023-02-05T12:26:02;98008.63;;;8.96;30.70
10992;BME280;5549;47.028;15.514;2023-02-05T12:28:40;98006.66;;;8.84;31.55
10992;BME280;5549;47.028;15.514;2023-02-05T12:31:22;98005.50;;;9.37;31.47
10992;BME280;5549;47.028;15.514;2023-02-05T12:34:19;98000.41;;;9.79;31.63
10992;BME280;5549;47.028;15.514;2023-02-05T12:37:06;97997.63;;;9.82;30.33
10992;BME280;5549;47.028;15.514;2023-02-05T12:39:46;97996.94;;;10.09;30.60
10992;BME280;5549;47.028;15.514;2023-02-05T12:42:28;97998.16;;;10.47;30.70
10992;BME280;5549;47.028;15.514;2023-02-05T12:45:14;97989.59;;;10.00;28.76
10992;BME280;5549;47.028;15.514;2023-02-05T12:48:08;97999.81;;;8.81;30.13
10992;BME280;5549;47.028;15.514;2023-02-05T12:50:59;97995.63;;;8.61;30.14
10992;BME280;5549;47.028;15.514;2023-02-05T12:53:54;97990.38;;;8.61;30.87
10992;BME280;5549;47.028;15.514;2023-02-05T12:56:44;97992.22;;;8.77;30.67
10992;BME280;5549;47.028;15.514;2023-02-05T12:59:29;97988.84;;;8.57;30.69
10992;BME280;5549;47.028;15.514;2023-02-05T13:02:06;97984.34;;;8.77;31.09
10992;BME280;5549;47.028;15.514;2023-02-05T13:04:42;97987.38;;;8.19;31.10
10992;BME280;5549;47.028;15.514;2023-02-05T13:07:25;97981.19;;;7.87;30.75
10992;BME280;5549;47.028;15.514;2023-02-05T13:10:00;97981.63;;;7.07;31.74
10992;BME280;5549;47.028;15.514;2023-02-05T13:12:34;97982.25;;;7.12;31.34
10992;BME280;5549;47.028;15.514;2023-02-05T13:15:13;97977.09;;;7.64;33.30
10992;BME280;5549;47.028;15.514;2023-02-05T13:17:54;97980.59;;;8.15;32.85
10992;BME280;5549;47.028;15.514;2023-02-05T13:20:30;97978.56;;;8.54;32.99
10992;BME280;5549;47.028;15.514;2023-02-05T13:23:17;97986.06;;;8.93;32.01
10992;BME280;5549;47.028;15.514;2023-02-05T13:26:04;97980.56;;;8.98;31.35
10992;BME280;5549;47.028;15.514;2023-02-05T13:28:53;97969.56;;;8.76;31.50
10992;BME280;5549;47.028;15.514;2023-02-05T13:31:26;97975.56;;;8.78;30.89
10992;BME280;5549;47.028;15.514;2023-02-05T13:34:02;97964.25;;;9.09;31.09
10992;BME280;5549;47.028;15.514;2023-02-05T13:37:17;97970.34;;;8.78;30.71
10992;BME280;5549;47.028;15.514;2023-02-05T13:40:30;97963.41;;;9.08;30.26
10992;BME280;5549;47.028;15.514;2023-02-05T13:47:08;97959.72;;;8.30;30.95